Camaqua, Brazil
Current Conditions -  °F | °C
As of 1:00 PM on Friday 19 Dec 2014 (Local Time) from SBPK Reporting Station
Clear Clear  
Wind Chill: 82°   Ceiling: Unl
Heat Index: 82°   Visibility: 6mi
Dew Point: 55°   Wind: 9mph
Humidity: 39%   Direction: 100°E
Pressure: 29.8"   Gusts: NA
Location:  30.85°S, 51.81°W
Report Text: SBPK 191500Z 10008KT CAVOK 28/13 Q1009
Loading
Personal Weather Stations






























Interactive Weather Map New forecast layout! Learn more

10-Day Weather Forecast

Advertisements
Track Severe Weather on mobile